createdAt,value
2019-03-10T00:00:21.068Z,6.54
2019-03-10T00:03:24.765Z,6.45
2019-03-10T00:06:26.624Z,6.31
2019-03-10T00:09:28.621Z,6.20
2019-03-10T00:12:30.514Z,6.05
2019-03-10T00:15:32.557Z,6.03
2019-03-10T00:18:34.463Z,5.98
2019-03-10T00:21:36.432Z,5.94
2019-03-10T00:24:38.329Z,5.85
2019-03-10T00:27:40.261Z,5.79
2019-03-10T00:30:42.226Z,5.74
2019-03-10T00:33:44.228Z,5.69
2019-03-10T00:36:46.132Z,5.68
2019-03-10T00:40:00.614Z,5.70
2019-03-10T00:43:23.061Z,5.66
2019-03-10T00:46:48.422Z,5.54
2019-03-10T00:50:11.981Z,5.49
2019-03-10T00:53:14.042Z,5.43
2019-03-10T00:56:15.922Z,5.33
2019-03-10T00:59:18.267Z,5.21
2019-03-10T01:02:20.143Z,5.21
2019-03-10T01:05:22.082Z,5.19
2019-03-10T01:08:24.230Z,5.16
2019-03-10T01:11:26.290Z,5.17
2019-03-10T01:14:28.141Z,5.12
2019-03-10T01:17:30.344Z,5.03
2019-03-10T01:20:32.375Z,4.95
2019-03-10T01:23:34.318Z,4.96
2019-03-10T01:26:37.969Z,4.93
2019-03-10T01:29:39.923Z,4.95
2019-03-10T01:33:02.339Z,4.92
2019-03-10T01:36:07.846Z,4.88
2019-03-10T01:39:10.187Z,4.73
2019-03-10T01:42:12.377Z,4.60
2019-03-10T01:45:14.336Z,4.51
2019-03-10T01:48:16.267Z,4.40
2019-03-10T01:51:18.228Z,4.36
2019-03-10T01:54:20.246Z,4.32
2019-03-10T01:57:22.897Z,4.25
2019-03-10T02:00:24.807Z,4.23
2019-03-10T02:03:29.777Z,4.21
2019-03-10T02:06:31.659Z,4.20
2019-03-10T02:09:33.561Z,4.19
2019-03-10T02:12:35.504Z,4.17
2019-03-10T02:15:37.378Z,4.16
2019-03-10T02:18:39.272Z,4.13
2019-03-10T02:21:41.158Z,4.10
2019-03-10T02:24:42.996Z,4.08
2019-03-10T02:27:44.963Z,4.05
2019-03-10T02:30:47.004Z,4.00
2019-03-10T02:33:48.941Z,3.98
2019-03-10T02:36:50.889Z,3.89
2019-03-10T02:39:52.811Z,3.83
2019-03-10T02:42:54.660Z,3.77
2019-03-10T02:45:56.559Z,3.71
2019-03-10T02:48:58.438Z,3.70
2019-03-10T02:52:00.305Z,3.69
2019-03-10T02:55:02.826Z,3.63
2019-03-10T02:58:04.752Z,3.63
2019-03-10T03:01:06.729Z,3.61
2019-03-10T03:04:08.698Z,3.60
2019-03-10T03:07:10.559Z,3.57
2019-03-10T03:10:13.091Z,3.53
2019-03-10T03:13:15.018Z,3.52
2019-03-10T03:16:16.906Z,3.49
2019-03-10T03:19:18.820Z,3.44
2019-03-10T03:22:20.741Z,3.42
2019-03-10T03:25:22.644Z,3.38
2019-03-10T03:28:24.515Z,3.30
2019-03-10T03:31:26.427Z,3.29
2019-03-10T03:34:28.341Z,3.26
2019-03-10T03:37:30.252Z,3.28
2019-03-10T03:40:32.217Z,3.33
2019-03-10T03:43:34.082Z,3.34
2019-03-10T03:46:35.975Z,3.41
2019-03-10T03:49:37.859Z,3.42
2019-03-10T03:52:39.856Z,3.41
2019-03-10T03:55:41.915Z,3.45
2019-03-10T03:58:43.885Z,3.43
2019-03-10T04:01:50.549Z,3.42
2019-03-10T04:04:52.508Z,3.44
2019-03-10T04:07:54.489Z,3.45
2019-03-10T04:10:56.380Z,3.40
2019-03-10T04:13:58.465Z,3.38
2019-03-10T04:17:00.379Z,3.34
2019-03-10T04:20:04.525Z,3.27
2019-03-10T04:23:06.484Z,3.23
2019-03-10T04:26:08.498Z,3.20
2019-03-10T04:29:10.432Z,3.23
2019-03-10T04:32:12.314Z,3.19
2019-03-10T04:35:14.232Z,3.21
2019-03-10T04:38:16.065Z,3.24
2019-03-10T04:41:18.030Z,3.28
2019-03-10T04:44:19.861Z,3.31
2019-03-10T04:47:22.500Z,3.33
2019-03-10T04:50:24.414Z,3.33
2019-03-10T04:53:26.411Z,3.37
2019-03-10T04:56:33.226Z,3.37
2019-03-10T04:59:35.707Z,3.40
2019-03-10T05:02:37.682Z,3.41
2019-03-10T05:05:40.853Z,3.42
2019-03-10T05:08:42.782Z,3.43
2019-03-10T05:11:44.715Z,3.53
2019-03-10T05:14:46.577Z,3.69
2019-03-10T05:17:48.544Z,3.78
2019-03-10T05:20:50.370Z,3.87
2019-03-10T05:23:53.134Z,3.97
2019-03-10T05:26:55.035Z,4.07
2019-03-10T05:29:56.963Z,4.24
2019-03-10T05:32:58.862Z,4.62
2019-03-10T05:36:00.793Z,5.26
2019-03-10T05:39:04.452Z,5.89
2019-03-10T05:42:07.422Z,6.21
2019-03-10T05:45:09.489Z,6.19
2019-03-10T05:48:12.920Z,6.39
2019-03-10T05:51:14.875Z,6.50
2019-03-10T05:54:16.748Z,6.69
2019-03-10T05:57:18.771Z,6.44
2019-03-10T06:00:20.808Z,6.18
2019-03-10T06:03:22.871Z,6.06
2019-03-10T06:06:24.718Z,5.95
2019-03-10T06:09:27.759Z,5.93
2019-03-10T06:12:29.619Z,5.91
2019-03-10T06:15:31.565Z,5.95
2019-03-10T06:18:33.477Z,5.94
2019-03-10T06:21:35.464Z,5.93
2019-03-10T06:24:37.340Z,5.93
2019-03-10T06:27:39.250Z,5.93
2019-03-10T06:30:41.139Z,5.97
2019-03-10T06:33:43.220Z,6.02
2019-03-10T06:36:45.137Z,6.07
2019-03-10T06:39:47.125Z,6.07
2019-03-10T06:42:49.005Z,6.06
2019-03-10T06:45:50.956Z,6.06
2019-03-10T06:48:52.937Z,6.25
2019-03-10T06:51:54.913Z,6.49
2019-03-10T06:54:56.818Z,6.65
2019-03-10T06:57:58.796Z,6.79
2019-03-10T07:01:00.691Z,6.87
2019-03-10T07:04:02.792Z,7.05
2019-03-10T07:07:04.652Z,7.32
2019-03-10T07:10:09.563Z,7.67
2019-03-10T07:13:11.531Z,7.98
2019-03-10T07:16:13.391Z,8.20
2019-03-10T07:19:15.225Z,8.39
2019-03-10T07:22:17.076Z,8.60
2019-03-10T07:25:18.989Z,8.94
2019-03-10T07:28:22.658Z,9.25
2019-03-10T07:31:32.620Z,9.52
2019-03-10T07:34:42.319Z,9.73
2019-03-10T07:37:58.178Z,9.85
2019-03-10T07:41:10.896Z,9.88
2019-03-10T07:44:14.598Z,9.91
2019-03-10T07:47:18.246Z,10.06
2019-03-10T07:50:38.535Z,10.09
2019-03-10T07:53:45.257Z,10.07
2019-03-10T07:56:51.791Z,10.14
2019-03-10T08:00:12.213Z,10.43
2019-03-10T08:03:22.178Z,10.64
2019-03-10T08:06:25.985Z,10.93
2019-03-10T08:09:35.426Z,11.01
2019-03-10T08:12:39.124Z,11.11
2019-03-10T08:15:48.814Z,10.94
2019-03-10T08:19:07.975Z,11.05
2019-03-10T08:22:18.012Z,11.21
2019-03-10T08:25:24.738Z,11.21
2019-03-10T08:28:28.455Z,11.20
2019-03-10T08:31:50.582Z,11.32
2019-03-10T08:34:54.307Z,11.54
2019-03-10T08:38:10.126Z,11.69
2019-03-10T08:41:16.422Z,11.57
2019-03-10T08:44:20.086Z,11.46
2019-03-10T08:47:42.279Z,11.43
2019-03-10T08:50:48.754Z,11.41
2019-03-10T08:53:58.154Z,11.39
2019-03-10T08:57:01.871Z,11.46
2019-03-10T09:00:18.179Z,11.51
2019-03-10T09:03:24.761Z,11.51
2019-03-10T09:06:28.518Z,11.47
2019-03-10T09:09:32.264Z,11.43
2019-03-10T09:12:35.996Z,11.44
2019-03-10T09:15:45.859Z,11.58
2019-03-10T09:18:49.641Z,11.76
2019-03-10T09:22:11.776Z,11.90
2019-03-10T09:25:32.111Z,12.02
2019-03-10T09:28:35.763Z,12.15
2019-03-10T09:31:42.298Z,12.20
2019-03-10T09:34:45.983Z,12.31
2019-03-10T09:37:52.837Z,12.43
2019-03-10T09:41:02.602Z,12.49
2019-03-10T09:44:06.297Z,12.53
2019-03-10T09:47:22.323Z,12.62
2019-03-10T09:50:26.046Z,12.67
2019-03-10T09:53:46.431Z,12.53
2019-03-10T09:57:06.736Z,12.46
2019-03-10T10:00:29.037Z,12.44
2019-03-10T10:03:35.193Z,12.51
2019-03-10T10:06:54.302Z,12.30
2019-03-10T10:10:03.810Z,12.14
2019-03-10T10:13:16.675Z,11.90
2019-03-10T10:16:23.383Z,11.85
2019-03-10T10:19:27.054Z,11.87
2019-03-10T10:22:36.690Z,11.89
2019-03-10T10:25:40.771Z,11.86
2019-03-10T10:29:01.984Z,12.01
2019-03-10T10:32:18.737Z,11.97
2019-03-10T10:35:34.270Z,11.90
2019-03-10T10:38:50.180Z,11.89
2019-03-10T10:41:53.980Z,11.81
2019-03-10T10:45:14.194Z,11.75
2019-03-10T10:48:17.920Z,11.80
2019-03-10T10:51:25.544Z,11.80
2019-03-10T10:54:40.917Z,11.97
2019-03-10T10:57:50.922Z,12.18
2019-03-10T11:01:00.687Z,12.28
2019-03-10T11:04:10.000Z,12.46
2019-03-10T11:07:13.671Z,12.55
2019-03-10T11:10:23.007Z,12.62
2019-03-10T11:13:26.757Z,12.69
2019-03-10T11:16:47.546Z,12.81
2019-03-10T11:19:51.236Z,12.86
2019-03-10T11:22:58.068Z,12.75
2019-03-10T11:26:02.842Z,12.67
2019-03-10T11:29:09.418Z,12.47
2019-03-10T11:32:13.116Z,12.24
2019-03-10T11:35:31.897Z,12.11
2019-03-10T11:38:38.247Z,12.05
2019-03-10T11:41:58.595Z,11.86
2019-03-10T11:45:19.123Z,11.61
2019-03-10T11:48:34.677Z,11.39
2019-03-10T11:51:55.409Z,11.23
2019-03-10T11:55:15.542Z,11.09
2019-03-10T11:58:19.308Z,10.94
2019-03-10T12:01:41.151Z,10.64
2019-03-10T12:05:00.385Z,10.55
2019-03-10T12:08:13.301Z,10.29
2019-03-10T12:11:16.182Z,10.23
2019-03-10T12:14:18.153Z,10.26
2019-03-10T12:17:20.109Z,10.17
2019-03-10T12:20:22.067Z,10.20
2019-03-10T12:23:24.063Z,10.14
2019-03-10T12:26:27.099Z,10.02
2019-03-10T12:29:29.082Z,9.87
2019-03-10T12:32:31.255Z,9.72
2019-03-10T12:35:34.697Z,9.64
2019-03-10T12:38:36.907Z,9.52
2019-03-10T12:41:38.874Z,9.42
2019-03-10T12:44:40.791Z,9.38
2019-03-10T12:47:43.224Z,9.46
2019-03-10T12:50:45.213Z,9.35
2019-03-10T12:53:47.147Z,9.19
2019-03-10T12:56:49.038Z,9.15
2019-03-10T12:59:51.240Z,9.15
2019-03-10T13:02:53.265Z,9.28
2019-03-10T13:05:55.166Z,9.37
2019-03-10T13:08:57.127Z,9.51
2019-03-10T13:11:58.995Z,9.50
2019-03-10T13:15:01.425Z,9.53
2019-03-10T13:18:03.517Z,9.49
2019-03-10T13:21:05.576Z,9.41
2019-03-10T13:24:07.465Z,9.31
2019-03-10T13:27:09.545Z,9.20
2019-03-10T13:30:14.569Z,9.23
2019-03-10T13:33:16.548Z,9.27
2019-03-10T13:36:19.803Z,9.24
2019-03-10T13:39:22.323Z,9.20
2019-03-10T13:42:24.245Z,9.17
2019-03-10T13:45:26.208Z,9.23
2019-03-10T13:48:28.117Z,9.23
2019-03-10T13:51:30.157Z,9.23
2019-03-10T13:54:32.103Z,9.28
2019-03-10T13:57:34.100Z,9.34
2019-03-10T14:00:36.065Z,9.42
2019-03-10T14:03:39.487Z,9.43
2019-03-10T14:06:41.374Z,9.54
2019-03-10T14:09:43.294Z,9.65
2019-03-10T14:12:47.821Z,9.68
2019-03-10T14:15:51.760Z,9.63
2019-03-10T14:18:53.639Z,9.60
2019-03-10T14:21:55.752Z,9.57
2019-03-10T14:24:57.657Z,9.67
2019-03-10T14:27:59.640Z,9.66
2019-03-10T14:31:01.542Z,9.63
2019-03-10T14:34:05.034Z,9.37
2019-03-10T14:37:06.933Z,9.22
2019-03-10T14:40:15.072Z,9.07
2019-03-10T14:43:18.791Z,8.90
2019-03-10T14:46:20.742Z,8.69
2019-03-10T14:49:23.730Z,8.51
2019-03-10T14:52:30.209Z,8.37
2019-03-10T14:55:32.106Z,8.15
2019-03-10T14:58:34.304Z,8.03
2019-03-10T15:01:38.457Z,7.92
2019-03-10T15:04:40.566Z,7.66
2019-03-10T15:07:42.488Z,7.64
2019-03-10T15:10:46.944Z,7.78
2019-03-10T15:13:49.223Z,7.65
2019-03-10T15:16:51.248Z,7.54
2019-03-10T15:19:53.223Z,7.52
2019-03-10T15:22:57.165Z,7.43
2019-03-10T15:26:01.848Z,7.44
2019-03-10T15:29:04.313Z,7.57
2019-03-10T15:32:08.476Z,7.75
2019-03-10T15:35:10.470Z,7.71
2019-03-10T15:38:13.201Z,7.57
2019-03-10T15:41:17.415Z,7.46
2019-03-10T15:44:19.316Z,7.31
2019-03-10T15:47:21.220Z,7.25
2019-03-10T15:50:28.623Z,7.22
2019-03-10T15:53:32.860Z,7.22
2019-03-10T15:56:35.938Z,7.23
2019-03-10T15:59:37.962Z,7.20
2019-03-10T16:02:40.548Z,7.19
2019-03-10T16:05:44.680Z,7.20
2019-03-10T16:08:47.158Z,7.19
2019-03-10T16:11:49.501Z,7.23
2019-03-10T16:14:53.362Z,7.31
2019-03-10T16:17:55.275Z,7.36
2019-03-10T16:20:59.066Z,7.38
2019-03-10T16:24:01.196Z,7.33
2019-03-10T16:27:03.952Z,7.31
2019-03-10T16:30:16.821Z,7.33
2019-03-10T16:33:20.234Z,7.28
2019-03-10T16:36:22.192Z,7.33
2019-03-10T16:39:26.023Z,7.33
2019-03-10T16:42:29.443Z,7.44
2019-03-10T16:45:31.417Z,7.54
2019-03-10T16:48:34.800Z,7.66
2019-03-10T16:51:36.794Z,7.74
2019-03-10T16:54:40.143Z,7.79
2019-03-10T16:57:43.998Z,7.94
2019-03-10T17:00:48.645Z,8.00
2019-03-10T17:03:50.709Z,8.03
2019-03-10T17:06:54.663Z,8.06
2019-03-10T17:09:56.961Z,8.20
2019-03-10T17:13:02.126Z,8.28
2019-03-10T17:16:05.764Z,8.42
2019-03-10T17:19:10.383Z,8.51
2019-03-10T17:22:12.451Z,8.55
2019-03-10T17:25:16.909Z,8.60
2019-03-10T17:28:18.880Z,8.62
2019-03-10T17:31:20.959Z,8.66
2019-03-10T17:34:25.092Z,8.64
2019-03-10T17:37:27.153Z,8.63
2019-03-10T17:40:29.482Z,8.63
2019-03-10T17:43:34.005Z,8.61
2019-03-10T17:46:36.395Z,8.66
2019-03-10T17:49:38.448Z,8.69
2019-03-10T17:52:40.513Z,8.68
2019-03-10T17:55:45.842Z,8.76
2019-03-10T17:58:48.257Z,8.82
2019-03-10T18:01:52.089Z,8.85
2019-03-10T18:04:54.077Z,8.89
2019-03-10T18:07:56.174Z,8.89
2019-03-10T18:10:58.168Z,8.92
2019-03-10T18:14:02.075Z,8.97
2019-03-10T18:17:07.191Z,8.95
2019-03-10T18:20:17.364Z,8.91
2019-03-10T18:23:21.063Z,8.87
2019-03-10T18:26:23.467Z,8.81
2019-03-10T18:29:27.744Z,8.78
2019-03-10T18:32:29.929Z,8.78
2019-03-10T18:35:31.844Z,8.77
2019-03-10T18:38:35.355Z,8.83
2019-03-10T18:41:37.346Z,8.86
2019-03-10T18:44:41.946Z,8.87
2019-03-10T18:47:43.965Z,8.82
2019-03-10T18:50:48.040Z,8.85
2019-03-10T18:53:52.870Z,8.82
2019-03-10T18:56:57.183Z,8.80
2019-03-10T19:00:01.288Z,8.81
2019-03-10T19:03:03.457Z,8.83
2019-03-10T19:06:05.995Z,8.86
2019-03-10T19:09:11.951Z,8.87
2019-03-10T19:12:16.292Z,8.91
2019-03-10T19:15:25.413Z,8.94
2019-03-10T19:18:31.729Z,8.95
2019-03-10T19:21:36.071Z,8.93
2019-03-10T19:24:42.184Z,8.98
2019-03-10T19:27:45.919Z,8.95
2019-03-10T19:30:49.446Z,8.91
2019-03-10T19:33:51.431Z,8.90
2019-03-10T19:36:57.336Z,8.92
2019-03-10T19:40:00.247Z,8.94
2019-03-10T19:43:02.161Z,8.95
2019-03-10T19:46:06.978Z,8.89
2019-03-10T19:49:08.874Z,8.84
2019-03-10T19:52:12.371Z,8.72
2019-03-10T19:55:14.709Z,8.69
2019-03-10T19:58:16.723Z,8.66
2019-03-10T20:01:20.183Z,8.69
2019-03-10T20:04:23.935Z,8.76
2019-03-10T20:07:28.163Z,8.84
2019-03-10T20:10:31.327Z,8.95
2019-03-10T20:13:34.635Z,9.04
2019-03-10T20:16:41.217Z,8.99
2019-03-10T20:19:48.705Z,8.92
2019-03-10T20:22:56.721Z,8.85
2019-03-10T20:26:00.159Z,8.79
2019-03-10T20:29:02.219Z,8.75
2019-03-10T20:32:13.495Z,8.85
2019-03-10T20:35:08.591Z,8.98
2019-03-10T20:38:11.639Z,8.96
2019-03-10T20:41:15.134Z,8.91
2019-03-10T20:44:17.556Z,8.88
2019-03-10T20:47:19.510Z,8.80
2019-03-10T20:50:21.497Z,8.84
2019-03-10T20:53:23.431Z,8.89
2019-03-10T20:56:25.870Z,8.91
2019-03-10T20:59:28.700Z,9.03
2019-03-10T21:02:30.663Z,9.11
2019-03-10T21:05:32.648Z,9.24
2019-03-10T21:08:34.849Z,9.26
2019-03-10T21:11:38.517Z,9.26
2019-03-10T21:14:40.388Z,9.26
2019-03-10T21:17:43.113Z,9.23
2019-03-10T21:20:45.547Z,9.14
2019-03-10T21:23:47.507Z,8.97
2019-03-10T21:26:50.434Z,8.86
2019-03-10T21:29:53.539Z,8.83
2019-03-10T21:32:55.513Z,8.89
2019-03-10T21:35:58.748Z,8.97
2019-03-10T21:39:00.582Z,9.08
2019-03-10T21:42:04.312Z,9.16
2019-03-10T21:45:08.476Z,9.19
2019-03-10T21:48:10.414Z,9.23
2019-03-10T21:51:12.364Z,9.27
2019-03-10T21:54:14.364Z,9.30
2019-03-10T21:57:16.306Z,9.30
2019-03-10T22:00:19.393Z,9.29
2019-03-10T22:03:21.331Z,9.27
2019-03-10T22:06:23.331Z,9.21
2019-03-10T22:09:26.523Z,9.22
2019-03-10T22:12:28.573Z,9.24
2019-03-10T22:15:40.712Z,9.28
2019-03-10T22:18:34.439Z,9.29
2019-03-10T22:21:36.416Z,9.27
2019-03-10T22:24:38.555Z,9.27
2019-03-10T22:27:40.479Z,9.23
2019-03-10T22:30:42.421Z,9.24
2019-03-10T22:33:44.349Z,9.23
2019-03-10T22:36:46.253Z,9.21
2019-03-10T22:39:48.186Z,9.21
2019-03-10T22:42:51.321Z,9.20
2019-03-10T22:45:53.271Z,9.16
2019-03-10T22:48:55.179Z,9.12
2019-03-10T22:51:57.227Z,9.08
2019-03-10T22:54:59.195Z,9.03
2019-03-10T22:58:01.106Z,8.98
2019-03-10T23:01:03.374Z,8.84
2019-03-10T23:04:05.870Z,8.68
2019-03-10T23:07:07.779Z,8.58
2019-03-10T23:10:12.574Z,8.53
2019-03-10T23:13:14.630Z,8.45
2019-03-10T23:16:18.388Z,8.43
2019-03-10T23:19:20.407Z,8.26
2019-03-10T23:22:22.353Z,8.10
2019-03-10T23:25:24.278Z,7.94
2019-03-10T23:28:26.161Z,7.79
2019-03-10T23:31:28.223Z,7.58
2019-03-10T23:34:30.155Z,7.33
2019-03-10T23:37:32.068Z,7.10
2019-03-10T23:40:34.017Z,6.94
2019-03-10T23:43:35.939Z,6.76
2019-03-10T23:46:38.235Z,6.63
2019-03-10T23:49:40.144Z,6.56
2019-03-10T23:52:42.080Z,6.45
2019-03-10T23:55:43.933Z,6.35
2019-03-10T23:58:45.862Z,6.12
